Time;durP1;ratioP1;P1;durP2;ratioP2;P2;SDS_P1;SDS_P2;PMS_P1;PMS_P2;Temp;Humidity;BMP_temperature;BMP_pressure;BME280_temperature;BME280_humidity;BME280_pressure;Samples;Min_cycle;Max_cycle;Signal;HPM_P1;HPM_P2
2022/05/29 00:01:18;;;;;;;1999.90;999.90;;;14.20;99.90;;;;;;4975483;28;20027;-74
2022/05/29 00:03:43;;;;;;;1999.90;999.90;;;14.20;99.90;;;;;;4980245;28;20030;-74
2022/05/29 00:06:11;;;;;;;1999.90;999.90;;;14.10;99.90;;;;;;4964399;28;20034;-74
2022/05/29 00:08:40;;;;;;;1999.90;999.90;;;14.20;99.90;;;;;;4973976;28;20109;-74
2022/05/29 00:11:07;;;;;;;1999.90;999.90;;;14.10;99.90;;;;;;4975581;28;20486;-72
2022/05/29 00:13:33;;;;;;;1999.90;999.90;;;14.10;99.90;;;;;;4975360;28;20031;-72
2022/05/29 00:15:59;;;;;;;1999.90;999.90;;;14.10;99.90;;;;;;4975214;28;20030;-72
2022/05/29 00:18:25;;;;;;;1999.90;999.90;;;14.10;99.90;;;;;;4957093;28;20399;-74
2022/05/29 00:20:54;;;;;;;1999.90;999.90;;;14.00;99.90;;;;;;4967184;28;20422;-72
2022/05/29 00:23:20;;;;;;;1999.90;999.90;;;13.90;99.90;;;;;;4975008;28;20114;-75
2022/05/29 00:25:50;;;;;;;1999.90;999.90;;;13.90;99.90;;;;;;4975537;28;20022;-74
2022/05/29 00:28:16;;;;;;;1999.90;999.90;;;13.80;99.90;;;;;;4976172;28;20062;-72
2022/05/29 00:30:42;;;;;;;1999.90;999.90;;;13.70;99.90;;;;;;4972857;28;20030;-72
2022/05/29 00:33:08;;;;;;;1999.90;999.90;;;13.70;99.90;;;;;;4975173;28;20405;-74
2022/05/29 00:35:37;;;;;;;1999.90;999.90;;;13.60;99.90;;;;;;4974867;28;20108;-74
2022/05/29 00:38:03;;;;;;;1999.90;999.90;;;13.50;99.90;;;;;;4944375;28;20565;-74
2022/05/29 00:41:18;;;;;;;1999.90;999.90;;;13.60;99.90;;;;;;4968890;28;20034;-72
2022/05/29 00:44:13;;;;;;;1999.90;999.90;;;13.50;99.90;;;;;;4935003;28;20063;-74
2022/05/29 00:46:49;;;;;;;1999.90;999.90;;;13.50;99.90;;;;;;4963924;28;20066;-74
2022/05/29 00:49:17;;;;;;;1999.90;999.90;;;13.50;99.90;;;;;;4957094;28;20481;-74
2022/05/29 00:52:09;;;;;;;1999.90;999.90;;;13.50;99.90;;;;;;4963093;28;20031;-72
2022/05/29 00:54:42;;;;;;;1999.90;999.90;;;13.50;99.90;;;;;;4958555;28;20035;-74
2022/05/29 00:57:20;;;;;;;1999.90;999.90;;;13.50;99.90;;;;;;4970386;28;20054;-72
2022/05/29 00:59:46;;;;;;;1999.90;999.90;;;13.50;99.90;;;;;;4973864;28;20570;-74
2022/05/29 01:02:12;;;;;;;1999.90;999.90;;;13.50;99.90;;;;;;4974480;28;20117;-72
2022/05/29 01:04:41;;;;;;;1999.90;999.90;;;13.40;99.90;;;;;;4974580;28;20106;-72
2022/05/29 01:07:09;;;;;;;1999.90;999.90;;;13.40;99.90;;;;;;4961612;28;20023;-74
2022/05/29 01:09:36;;;;;;;1999.90;999.90;;;13.30;99.90;;;;;;4974556;28;20030;-74
2022/05/29 01:12:22;;;;;;;1999.90;999.90;;;13.30;99.90;;;;;;4961550;28;20101;-72
2022/05/29 01:14:57;;;;;;;1999.90;999.90;;;13.30;99.90;;;;;;4973237;28;20039;-74
2022/05/29 01:17:57;;;;;;;1999.90;999.90;;;13.30;99.90;;;;;;4964376;28;20055;-72
2022/05/29 01:20:44;;;;;;;1999.90;999.90;;;13.30;99.90;;;;;;4962322;28;20031;-74
2022/05/29 01:23:30;;;;;;;1999.90;999.90;;;13.20;99.90;;;;;;4975833;28;20375;-75
2022/05/29 01:26:38;;;;;;;1999.90;999.90;;;13.10;99.90;;;;;;4956746;28;20033;-74
2022/05/29 01:29:09;;;;;;;1999.90;999.90;;;13.10;99.90;;;;;;4973689;28;20038;-74
2022/05/29 01:31:58;;;;;;;1999.90;999.90;;;13.10;99.90;;;;;;4968141;28;20027;-74
2022/05/29 01:34:27;;;;;;;1999.90;999.90;;;13.10;99.90;;;;;;4974079;28;20029;-74
2022/05/29 01:37:29;;;;;;;1999.90;999.90;;;13.00;99.90;;;;;;4973950;28;20063;-74
2022/05/29 01:40:09;;;;;;;1999.90;999.90;;;13.00;99.90;;;;;;4951733;28;20050;-74
2022/05/29 01:42:46;;;;;;;1999.90;999.90;;;13.10;99.90;;;;;;4971249;28;20077;-72
2022/05/29 01:45:56;;;;;;;1999.90;999.90;;;13.10;99.90;;;;;;4966621;28;20382;-72
2022/05/29 01:48:55;;;;;;;1999.90;999.90;;;13.00;99.90;;;;;;4952195;28;20059;-74
2022/05/29 01:51:30;;;;;;;1999.90;999.90;;;13.00;99.90;;;;;;4945984;28;20035;-74
2022/05/29 01:54:09;;;;;;;1999.90;999.90;;;12.90;99.90;;;;;;4958906;28;20537;-74
2022/05/29 01:56:40;;;;;;;1999.90;999.90;;;12.90;99.90;;;;;;4969238;28;20498;-72
2022/05/29 01:59:14;;;;;;;1999.90;999.90;;;12.90;99.90;;;;;;4962447;28;20109;-72
2022/05/29 02:01:47;;;;;;;1999.90;999.90;;;12.80;99.90;;;;;;4973627;28;20019;-74
2022/05/29 02:04:15;;;;;;;;;;;12.80;99.90;;;;;;4973768;28;20516;-74
2022/05/29 02:09:35;;;;;;;1999.90;999.90;;;12.70;99.90;;;;;;4973862;28;20041;-74
2022/05/29 02:12:02;;;;;;;1999.90;999.90;;;12.70;99.90;;;;;;4951537;28;20034;-74
2022/05/29 02:14:34;;;;;;;1999.90;999.90;;;12.70;99.90;;;;;;4977532;28;20022;-74
2022/05/29 02:17:14;;;;;;;1999.90;999.90;;;12.60;99.90;;;;;;4970391;28;20038;-74
2022/05/29 02:19:48;;;;;;;1999.90;999.90;;;12.60;99.90;;;;;;4972956;28;20031;-74
2022/05/29 02:22:27;;;;;;;1999.90;999.90;;;12.60;99.90;;;;;;4976967;28;20085;-72
2022/05/29 02:25:22;;;;;;;1999.90;999.90;;;12.50;99.90;;;;;;4959952;28;20387;-72
2022/05/29 02:28:12;;;;;;;1999.90;999.90;;;12.50;99.90;;;;;;4978413;28;20094;-72
2022/05/29 02:30:54;;;;;;;1999.90;999.90;;;12.40;99.90;;;;;;4960710;28;20035;-74
2022/05/29 02:33:36;;;;;;;1999.90;999.90;;;12.40;99.90;;;;;;4977221;28;20063;-74
2022/05/29 02:36:19;;;;;;;1999.90;999.90;;;12.40;99.90;;;;;;4976674;28;20038;-72
2022/05/29 02:39:10;;;;;;;1999.90;999.90;;;12.40;99.90;;;;;;4965224;28;20456;-74
2022/05/29 02:41:51;;;;;;;1999.90;999.90;;;12.40;99.90;;;;;;4958099;28;20035;-74
2022/05/29 02:44:41;;;;;;;1999.90;999.90;;;12.40;99.90;;;;;;4966355;28;20023;-74
2022/05/29 02:47:18;;;;;;;1999.90;999.90;;;12.40;99.90;;;;;;4963975;28;20079;-74
2022/05/29 02:50:18;;;;;;;1999.90;999.90;;;12.30;99.90;;;;;;4977120;28;20023;-72
2022/05/29 02:52:44;;;;;;;1999.90;999.90;;;12.30;99.90;;;;;;4937094;29;20039;-74
2022/05/29 02:55:11;;;;;;;1999.90;999.90;;;12.30;99.90;;;;;;4971238;28;20564;-74
2022/05/29 02:57:38;;;;;;;1999.90;999.90;;;12.30;99.90;;;;;;4973334;28;20110;-74
2022/05/29 03:00:11;;;;;;;1999.90;999.90;;;12.20;99.90;;;;;;4976539;28;20023;-72
2022/05/29 03:02:43;;;;;;;1999.90;999.90;;;12.20;99.90;;;;;;4976522;28;20023;-73
2022/05/29 03:05:27;;;;;;;1999.90;999.90;;;12.20;99.90;;;;;;4972726;28;20055;-72
2022/05/29 03:08:06;;;;;;;1999.90;999.90;;;12.20;99.90;;;;;;4970215;28;20034;-74
2022/05/29 03:10:37;;;;;;;1999.90;999.90;;;12.10;99.90;;;;;;4976607;28;20359;-74
2022/05/29 03:13:09;;;;;;;1999.90;999.90;;;12.10;99.90;;;;;;4975842;28;20034;-72
2022/05/29 03:16:16;;;;;;;1999.90;999.90;;;12.10;99.90;;;;;;4958849;28;20035;-72
2022/05/29 03:19:00;;;;;;;1999.90;999.90;;;12.00;99.90;;;;;;4954891;28;20461;-74
2022/05/29 03:21:30;;;;;;;1999.90;999.90;;;12.00;99.90;;;;;;4975561;28;20455;-74
2022/05/29 03:24:01;;;;;;;1999.90;999.90;;;12.00;99.90;;;;;;4976867;28;20450;-74
2022/05/29 03:26:38;;;;;;;1999.90;999.90;;;11.90;99.90;;;;;;4976092;28;20026;-72
2022/05/29 03:29:12;;;;;;;1999.90;999.90;;;11.90;99.90;;;;;;4976272;28;20027;-74
2022/05/29 03:31:40;;;;;;;1999.90;999.90;;;11.90;99.90;;;;;;4960384;28;20029;-74
2022/05/29 03:34:08;;;;;;;1999.90;999.90;;;11.90;99.90;;;;;;4970872;28;20026;-74
2022/05/29 03:36:34;;;;;;;1999.90;999.90;;;11.90;99.90;;;;;;4975824;28;20023;-74
2022/05/29 03:38:59;;;;;;;1999.90;999.90;;;11.90;99.90;;;;;;4963118;28;20031;-74
2022/05/29 03:41:31;;;;;;;1999.90;999.90;;;11.90;99.90;;;;;;4976002;28;20072;-74
2022/05/29 03:43:57;;;;;;;1999.90;999.90;;;11.90;99.90;;;;;;4946550;28;20631;-74
2022/05/29 03:46:22;;;;;;;1999.90;999.90;;;11.90;99.90;;;;;;4969391;28;20110;-72
2022/05/29 03:48:48;;;;;;;1999.90;999.90;;;11.90;99.90;;;;;;4969233;28;20026;-74
2022/05/29 03:51:13;;;;;;;1999.90;999.90;;;11.80;99.90;;;;;;4956399;28;20478;-74
2022/05/29 03:53:39;;;;;;;1999.90;999.90;;;11.80;99.90;;;;;;4958434;28;20035;-72
2022/05/29 03:56:07;;;;;;;1999.90;999.90;;;11.80;99.90;;;;;;4969610;28;20046;-74
2022/05/29 03:58:33;;;;;;;1999.90;999.90;;;11.80;99.90;;;;;;4971289;28;20026;-74
2022/05/29 04:00:59;;;;;;;1999.90;999.90;;;11.70;99.90;;;;;;4975600;28;20054;-74
2022/05/29 04:03:24;;;;;;;1999.90;999.90;;;11.70;99.90;;;;;;4975244;28;20027;-72
2022/05/29 04:05:51;;;;;;;1999.90;999.90;;;11.70;99.90;;;;;;4966947;28;20027;-72
2022/05/29 04:13:46;;;;;;;1999.90;999.90;;;11.80;99.90;;;;;;4975022;28;20166;-73
2022/05/29 04:16:12;;;;;;;1999.90;999.90;;;11.80;99.90;;;;;;4973927;28;20113;-74
2022/05/29 04:18:37;;;;;;;1999.90;999.90;;;11.80;99.90;;;;;;4963378;28;20033;-72
2022/05/29 04:21:05;;;;;;;1999.90;999.90;;;11.80;99.90;;;;;;4974138;28;20034;-74
2022/05/29 04:23:31;;;;;;;1999.90;999.90;;;11.80;99.90;;;;;;4975124;28;20035;-72
2022/05/29 04:25:56;;;;;;;1999.90;999.90;;;11.80;99.90;;;;;;4974970;28;20022;-73
2022/05/29 04:28:22;;;;;;;1999.90;999.90;;;11.80;99.90;;;;;;4974985;28;20031;-74
2022/05/29 04:30:48;;;;;;;1999.90;999.90;;;11.80;99.90;;;;;;4965759;28;20036;-74
2022/05/29 04:33:14;;;;;;;1999.90;999.90;;;11.80;99.90;;;;;;4974972;28;20547;-74
2022/05/29 04:35:44;;;;;;;1999.90;999.90;;;11.80;99.90;;;;;;4974827;28;20058;-74
2022/05/29 04:38:12;;;;;;;1999.90;999.90;;;11.80;99.90;;;;;;4967459;28;20038;-72
2022/05/29 04:40:42;;;;;;;1999.90;999.90;;;11.80;99.90;;;;;;4969621;28;20026;-74
2022/05/29 04:43:08;;;;;;;1999.90;999.90;;;11.80;99.90;;;;;;4967970;28;20659;-74
2022/05/29 04:45:34;;;;;;;1999.90;999.90;;;11.80;99.90;;;;;;4968172;28;20019;-72
2022/05/29 04:48:00;;;;;;;1999.90;999.90;;;11.80;99.90;;;;;;4963259;28;20059;-72
2022/05/29 04:50:25;;;;;;;1999.90;999.90;;;11.80;99.90;;;;;;4956628;28;20019;-74
2022/05/29 04:52:51;;;;;;;1999.90;999.90;;;11.80;99.90;;;;;;4955570;29;20028;-74
2022/05/29 04:55:18;;;;;;;1999.90;999.90;;;11.90;99.90;;;;;;4969451;28;20027;-74
2022/05/29 04:57:43;;;;;;;1999.90;999.90;;;11.90;99.90;;;;;;4971420;28;20039;-72
2022/05/29 05:00:10;;;;;;;1999.90;999.90;;;11.90;99.90;;;;;;4974020;28;20409;-72
2022/05/29 05:02:36;;;;;;;1999.90;999.90;;;11.90;99.90;;;;;;4974415;28;20039;-74
2022/05/29 05:05:02;;;;;;;1999.90;999.90;;;11.90;99.90;;;;;;4972151;28;20023;-72
2022/05/29 05:07:28;;;;;;;1999.90;999.90;;;12.00;99.90;;;;;;4964001;28;20026;-74
2022/05/29 05:09:53;;;;;;;1999.90;999.90;;;12.00;99.90;;;;;;4985964;28;20015;-74
2022/05/29 05:12:19;;;;;;;1999.90;999.90;;;12.00;99.90;;;;;;4974435;28;20041;-75
2022/05/29 05:14:45;;;;;;;1999.90;999.90;;;12.00;99.90;;;;;;4943951;28;20028;-74
2022/05/29 05:17:10;;;;;;;1999.90;999.90;;;12.00;99.90;;;;;;4965250;28;20039;-72
2022/05/29 05:19:36;;;;;;;1999.90;999.90;;;12.10;99.90;;;;;;4969736;28;20026;-72
2022/05/29 05:22:04;;;;;;;1999.90;999.90;;;12.10;99.90;;;;;;4955665;28;20118;-74
2022/05/29 05:24:30;;;;;;;1999.90;999.90;;;12.20;99.90;;;;;;4973965;28;20066;-72
2022/05/29 05:26:58;;;;;;;1999.90;999.90;;;12.20;99.90;;;;;;4974083;28;20058;-74
2022/05/29 05:29:24;;;;;;;1999.90;999.90;;;12.30;99.90;;;;;;4974019;28;20541;-72
2022/05/29 05:31:50;;;;;;;1999.90;999.90;;;12.30;99.90;;;;;;4969598;28;20031;-74
2022/05/29 05:34:16;;;;;;;1999.90;999.90;;;12.40;99.90;;;;;;4973702;28;20085;-74
2022/05/29 05:36:41;;;;;;;1999.90;999.90;;;12.40;99.90;;;;;;4970283;28;20069;-72
2022/05/29 05:39:07;;;;;;;1999.90;999.90;;;12.50;99.90;;;;;;4961806;28;20360;-72
2022/05/29 05:41:33;;;;;;;1999.90;999.90;;;12.60;99.90;;;;;;4973984;28;20023;-74
2022/05/29 05:43:59;;;;;;;1999.90;999.90;;;12.60;99.90;;;;;;4963072;28;20027;-74
2022/05/29 05:46:25;;;;;;;1999.90;999.90;;;12.70;99.90;;;;;;4964135;28;20031;-74
2022/05/29 05:48:51;;;;;;;1999.90;999.90;;;12.80;99.90;;;;;;4968855;28;20188;-74
2022/05/29 05:51:17;;;;;;;1999.90;999.90;;;12.80;99.90;;;;;;4964753;28;20026;-72
2022/05/29 05:53:42;;;;;;;1999.90;999.90;;;12.90;99.90;;;;;;4954480;28;20027;-74
2022/05/29 05:56:11;;;;;;;1999.90;999.90;;;12.90;99.90;;;;;;4962950;28;20482;-74
2022/05/29 05:58:37;;;;;;;1999.90;999.90;;;13.00;99.90;;;;;;4968288;28;20058;-71
2022/05/29 06:01:06;;;;;;;1999.90;999.90;;;13.10;99.90;;;;;;4946214;28;20062;-74
2022/05/29 06:03:32;;;;;;;1999.90;999.90;;;13.20;99.90;;;;;;4956156;28;20502;-74
2022/05/29 06:05:58;;;;;;;1999.90;999.90;;;13.30;99.90;;;;;;4963762;28;20024;-72
2022/05/29 06:08:24;;;;;;;1999.90;999.90;;;13.30;99.90;;;;;;4968859;28;20030;-74
2022/05/29 06:10:50;;;;;;;1999.90;999.90;;;13.40;99.90;;;;;;4973526;28;20034;-74
2022/05/29 06:13:16;;;;;;;1999.90;999.90;;;13.50;99.90;;;;;;4973495;28;20030;-75
2022/05/29 06:15:46;;;;;;;1999.90;999.90;;;13.50;99.90;;;;;;4973477;28;20033;-72
2022/05/29 06:18:12;;;;;;;1999.90;999.90;;;13.60;99.90;;;;;;4960421;28;20030;-72
2022/05/29 06:20:38;;;;;;;1999.90;999.90;;;13.70;99.50;;;;;;4955080;28;20050;-74
2022/05/29 06:23:04;;;;;;;1999.90;999.90;;;13.70;99.00;;;;;;4973127;28;20074;-72
2022/05/29 06:25:30;;;;;;;1999.90;999.90;;;13.80;99.00;;;;;;4973406;28;20019;-74
2022/05/29 06:27:55;;;;;;;1999.90;999.90;;;13.90;98.90;;;;;;4973391;28;20121;-74
2022/05/29 06:30:21;;;;;;;1999.90;999.90;;;13.90;98.60;;;;;;4973312;28;20506;-72
2022/05/29 06:32:47;;;;;;;1999.90;999.90;;;14.00;98.50;;;;;;4973235;28;20109;-74
2022/05/29 06:35:14;;;;;;;1999.90;999.90;;;14.10;98.40;;;;;;4973434;28;20037;-74
2022/05/29 06:37:41;;;;;;;1999.90;999.90;;;14.20;98.10;;;;;;4969997;28;20546;-74
2022/05/29 06:40:09;;;;;;;1999.90;999.90;;;14.30;97.70;;;;;;4964615;28;20395;-72
2022/05/29 06:42:35;;;;;;;1999.90;999.90;;;14.30;97.40;;;;;;4970746;28;20037;-72
2022/05/29 06:45:02;;;;;;;1999.90;999.90;;;14.40;97.60;;;;;;4965403;28;20062;-72
2022/05/29 06:47:28;;;;;;;1999.90;999.90;;;14.50;97.20;;;;;;4964767;28;20082;-74
2022/05/29 06:49:53;;;;;;;1999.90;999.90;;;14.50;96.60;;;;;;4972940;28;20027;-74
2022/05/29 06:52:19;;;;;;;1999.90;999.90;;;14.60;96.50;;;;;;4955882;28;20035;-72
2022/05/29 06:54:45;;;;;;;1999.90;999.90;;;14.70;96.60;;;;;;4965695;28;20050;-72
2022/05/29 06:57:12;;;;;;;1999.90;999.90;;;14.80;96.40;;;;;;4969586;28;20066;-72
2022/05/29 07:07:58;;;;;;;1999.90;999.90;;;15.10;95.40;;;;;;4957706;28;20118;-72
2022/05/29 07:10:25;;;;;;;1999.90;999.90;;;15.20;95.30;;;;;;4976606;28;20051;-74
2022/05/29 07:12:51;;;;;;;1999.90;999.90;;;15.30;95.00;;;;;;4976775;28;20482;-74
2022/05/29 07:15:18;;;;;;;1999.90;999.90;;;15.40;94.90;;;;;;4975573;28;20057;-72
2022/05/29 07:17:44;;;;;;;1999.90;999.90;;;15.60;95.00;;;;;;4963815;28;20039;-75
2022/05/29 07:20:10;;;;;;;1999.90;999.90;;;15.70;94.10;;;;;;4975973;28;20033;-74
2022/05/29 07:22:38;;;;;;;1999.90;999.90;;;15.80;94.30;;;;;;4975261;28;20027;-73
2022/05/29 07:25:05;;;;;;;1999.90;999.90;;;15.80;94.20;;;;;;4976623;28;20077;-74
2022/05/29 07:27:31;;;;;;;1999.90;999.90;;;16.00;94.00;;;;;;4976220;28;20026;-74
2022/05/29 07:29:57;;;;;;;1999.90;999.90;;;16.20;93.90;;;;;;4976253;28;20034;-72
2022/05/29 07:32:24;;;;;;;1999.90;999.90;;;16.60;93.50;;;;;;4975963;28;20027;-74
2022/05/29 07:34:50;;;;;;;1999.90;999.90;;;18.20;91.70;;;;;;4976465;28;20027;-72
2022/05/29 07:37:17;;;;;;;1999.90;999.90;;;20.60;87.80;;;;;;4983328;28;20482;-75
2022/05/29 07:39:46;;;;;;;1999.90;999.90;;;22.00;83.60;;;;;;4964336;28;20126;-76
2022/05/29 07:44:56;;;;;;;1999.90;999.90;;;23.30;79.20;;;;;;4948876;28;20030;-75
2022/05/29 07:47:27;;;;;;;1999.90;999.90;;;23.10;78.00;;;;;;4957043;28;20051;-75
2022/05/29 07:49:54;;;;;;;1999.90;999.90;;;23.70;77.50;;;;;;4967963;28;20030;-75
2022/05/29 07:52:20;;;;;;;1999.90;999.90;;;24.20;77.00;;;;;;4961268;28;20394;-76
2022/05/29 07:54:45;;;;;;;1999.90;999.90;;;24.30;75.80;;;;;;4967641;28;20026;-76
2022/05/29 07:57:11;;;;;;;1999.90;999.90;;;25.10;74.70;;;;;;4971859;28;20023;-73
2022/05/29 07:59:37;;;;;;;1999.90;999.90;;;25.20;74.40;;;;;;4975717;28;20476;-72
2022/05/29 08:02:03;;;;;;;1999.90;999.90;;;25.90;73.10;;;;;;4975501;28;20031;-72
2022/05/29 08:04:29;;;;;;;1999.90;999.90;;;25.80;71.90;;;;;;4977630;28;20023;-76
2022/05/29 08:06:55;;;;;;;1999.90;999.90;;;25.90;71.40;;;;;;4962989;28;20026;-76
2022/05/29 08:09:21;;;;;;;1999.90;999.90;;;26.00;71.10;;;;;;4964254;28;20390;-76
2022/05/29 08:11:47;;;;;;;1999.90;999.90;;;26.40;70.50;;;;;;4973446;28;20032;-76
2022/05/29 08:14:13;;;;;;;1999.90;999.90;;;26.60;70.10;;;;;;4958072;28;20023;-77
2022/05/29 08:16:39;;;;;;;1999.90;999.90;;;27.00;69.30;;;;;;4970951;28;20393;-77
2022/05/29 08:19:07;;;;;;;1999.90;999.90;;;27.50;69.40;;;;;;4971471;28;20052;-77
2022/05/29 08:21:33;;;;;;;1999.90;999.90;;;27.50;68.40;;;;;;4974809;28;20074;-77
2022/05/29 08:32:12;;;;;;;1999.90;999.90;;;28.20;66.00;;;;;;4974981;28;20394;-73
2022/05/29 08:34:37;;;;;;;1999.90;999.90;;;28.10;65.50;;;;;;4975217;28;20031;-77
2022/05/29 08:37:04;;;;;;;1999.90;999.90;;;28.10;65.90;;;;;;4974915;28;20033;-77
2022/05/29 08:39:30;;;;;;;1999.90;999.90;;;28.20;65.50;;;;;;4962497;28;20435;-73
2022/05/29 08:41:57;;;;;;;1999.90;999.90;;;29.00;64.30;;;;;;4975112;28;20066;-76
2022/05/29 08:44:42;;;;;;;1999.90;999.90;;;29.10;64.40;;;;;;4964415;28;20019;-77
2022/05/29 08:47:08;;;;;;;1999.90;999.90;;;29.10;64.10;;;;;;4962113;28;20043;-77
2022/05/29 08:49:39;;;;;;;1999.90;999.90;;;29.10;63.80;;;;;;4975133;28;20394;-77
2022/05/29 08:52:12;;;;;;;1999.90;999.90;;;29.20;64.20;;;;;;4959086;28;20027;-77
2022/05/29 08:54:52;;;;;;;1999.90;999.90;;;28.90;64.30;;;;;;4965288;28;20089;-76
2022/05/29 08:57:21;;;;;;;1999.90;999.90;;;29.10;63.80;;;;;;4970667;28;20497;-77
2022/05/29 09:00:01;;;;;;;1999.90;999.90;;;28.90;64.00;;;;;;4974932;28;20093;-76
2022/05/29 09:02:35;;;;;;;1999.90;999.90;;;29.20;63.10;;;;;;4974583;28;20035;-77
2022/05/29 09:05:08;;;;;;;1999.90;999.90;;;29.10;63.10;;;;;;4976099;28;20086;-77
2022/05/29 09:07:36;;;;;;;1999.90;999.90;;;28.20;63.80;;;;;;4965365;28;20027;-77
2022/05/29 09:10:09;;;;;;;1999.90;999.90;;;28.40;63.00;;;;;;4972656;28;20113;-77
2022/05/29 09:12:44;;;;;;;1999.90;999.90;;;29.70;63.10;;;;;;4974295;28;20034;-77
2022/05/29 09:15:42;;;;;;;1999.90;999.90;;;29.80;62.30;;;;;;4974144;28;20030;-77
2022/05/29 09:18:14;;;;;;;1999.90;999.90;;;29.10;62.80;;;;;;4940576;28;20039;-77
2022/05/29 09:20:59;;;;;;;1999.90;999.90;;;29.40;62.60;;;;;;4973709;28;20394;-73
2022/05/29 09:23:30;;;;;;;1999.90;999.90;;;29.00;61.20;;;;;;4973943;28;20085;-77
2022/05/29 09:25:56;;;;;;;1999.90;999.90;;;29.30;60.90;;;;;;4973824;28;20457;-77
2022/05/29 09:28:41;;;;;;;1999.90;999.90;;;29.50;60.10;;;;;;4974140;28;20031;-77
2022/05/29 09:31:11;;;;;;;1999.90;999.90;;;29.80;60.50;;;;;;4973917;28;20043;-77
2022/05/29 09:33:38;;;;;;;1999.90;999.90;;;30.10;60.10;;;;;;4974317;28;20470;-77
2022/05/29 09:36:28;;;;;;;1999.90;999.90;;;30.20;60.00;;;;;;4973865;28;20033;-78
2022/05/29 09:39:02;;;;;;;1999.90;999.90;;;29.10;61.30;;;;;;4961322;28;20038;-73
2022/05/29 09:41:40;;;;;;;1999.90;999.90;;;29.50;60.60;;;;;;4974011;28;20405;-77
2022/05/29 09:44:17;;;;;;;1999.90;999.90;;;29.30;60.30;;;;;;4959923;28;20390;-73
2022/05/29 09:46:46;;;;;;;1999.90;999.90;;;29.70;61.50;;;;;;4937171;29;20043;-73
2022/05/29 09:52:16;;;;;;;1999.90;999.90;;;30.30;60.70;;;;;;4957903;28;20042;-77
2022/05/29 09:54:54;;;;;;;1999.90;999.90;;;29.60;60.30;;;;;;4967674;28;20034;-73
2022/05/29 09:57:41;;;;;;;1999.90;999.90;;;28.90;60.00;;;;;;4969067;28;20493;-78
2022/05/29 10:00:15;;;;;;;1999.90;999.90;;;29.00;60.20;;;;;;4973559;28;20086;-73
2022/05/29 10:02:45;;;;;;;1999.90;999.90;;;28.40;60.50;;;;;;4973821;28;20449;-78
2022/05/29 10:05:27;;;;;;;1999.90;999.90;;;28.60;60.70;;;;;;4973810;28;20375;-73
2022/05/29 10:07:56;;;;;;;1999.90;999.90;;;28.70;60.90;;;;;;4973418;28;20018;-74
2022/05/29 10:10:25;;;;;;;1999.90;999.90;;;28.60;59.60;;;;;;4971883;28;20045;-73
2022/05/29 10:12:57;;;;;;;1999.90;999.90;;;28.20;58.80;;;;;;4974260;28;20490;-74
2022/05/29 10:15:25;;;;;;;1999.90;999.90;;;28.50;59.80;;;;;;4978203;28;20026;-78
2022/05/29 10:18:09;;;;;;;1999.90;999.90;;;28.90;59.20;;;;;;4973735;28;20027;-77
2022/05/29 10:20:39;;;;;;;1999.90;999.90;;;29.10;59.40;;;;;;4973585;28;20027;-78
2022/05/29 10:23:11;;;;;;;1999.90;999.90;;;28.70;59.20;;;;;;4973734;28;20027;-77
2022/05/29 10:26:14;;;;;;;1999.90;999.90;;;29.60;60.00;;;;;;4973093;28;20058;-77
2022/05/29 10:28:41;;;;;;;1999.90;999.90;;;29.80;59.90;;;;;;4923850;28;20031;-78
2022/05/29 10:31:12;;;;;;;1999.90;999.90;;;29.70;60.20;;;;;;4985740;28;20117;-76
2022/05/29 10:33:38;;;;;;;1999.90;999.90;;;29.30;59.80;;;;;;4977914;28;20102;-78
2022/05/29 10:36:09;;;;;;;1999.90;999.90;;;29.10;59.60;;;;;;4972992;28;20179;-77
2022/05/29 10:38:38;;;;;;;1999.90;999.90;;;29.00;61.20;;;;;;4958568;28;20046;-78
2022/05/29 10:41:06;;;;;;;1999.90;999.90;;;28.70;60.60;;;;;;4976230;28;20027;-78
2022/05/29 10:43:35;;;;;;;1999.90;999.90;;;29.30;60.00;;;;;;4966816;28;20027;-73
2022/05/29 10:46:18;;;;;;;1999.90;999.90;;;29.30;59.60;;;;;;4980014;28;20038;-76
2022/05/29 10:49:14;;;;;;;1999.90;999.90;;;29.30;59.30;;;;;;4953243;28;20521;-73
2022/05/29 10:52:27;;;;;;;1999.90;999.90;;;28.90;59.80;;;;;;4958439;28;20031;-77
2022/05/29 10:55:10;;;;;;;;;;;29.00;60.20;;;;;;4880356;29;20033;-77
2022/05/29 10:58:23;;;;;;;1999.90;999.90;;;29.50;59.20;;;;;;4886323;29;19908;-74
2022/05/29 11:00:55;;;;;;;1999.90;999.90;;;29.10;58.00;;;;;;4933272;28;20063;-78
2022/05/29 11:04:00;;;;;;;1999.90;999.90;;;27.90;59.90;;;;;;4959280;28;20033;-77
2022/05/29 11:06:37;;;;;;;1999.90;999.90;;;28.00;60.00;;;;;;4964037;28;20027;-77
2022/05/29 11:09:17;;;;;;;1999.90;999.90;;;27.90;59.90;;;;;;4977034;28;20054;-78
2022/05/29 11:12:07;;;;;;;1999.90;999.90;;;28.60;60.70;;;;;;4978030;28;20023;-77
2022/05/29 11:14:42;;;;;;;1999.90;999.90;;;29.10;59.10;;;;;;4976413;28;20023;-77
2022/05/29 11:17:29;;;;;;;1999.90;999.90;;;29.50;59.90;;;;;;4968524;28;20023;-78
2022/05/29 11:20:09;;;;;;;1999.90;999.90;;;29.00;59.10;;;;;;4974875;28;20031;-78
2022/05/29 11:22:52;;;;;;;1999.90;999.90;;;28.70;58.50;;;;;;4976418;28;20078;-77
2022/05/29 11:25:40;;;;;;;1999.90;999.90;;;28.50;59.70;;;;;;4975872;28;20171;-78
2022/05/29 11:28:36;;;;;;;1999.90;999.90;;;28.30;59.20;;;;;;4975620;28;20058;-72
2022/05/29 11:31:17;;;;;;;1999.90;999.90;;;28.80;58.60;;;;;;4978293;28;20026;-73
2022/05/29 11:34:10;;;;;;;1999.90;999.90;;;29.40;58.70;;;;;;4976368;28;20105;-78
2022/05/29 11:36:44;;;;;;;1999.90;999.90;;;29.20;57.40;;;;;;4976270;28;20030;-78
2022/05/29 11:39:17;;;;;;;1999.90;999.90;;;29.10;58.30;;;;;;4964108;28;20027;-77
2022/05/29 11:42:07;;;;;;;1999.90;999.90;;;28.70;59.00;;;;;;4976439;28;20058;-74
2022/05/29 11:44:51;;;;;;;1999.90;999.90;;;28.60;58.90;;;;;;4957723;28;20034;-77
2022/05/29 11:53:37;;;;;;;1999.90;999.90;;;28.10;58.40;;;;;;4958367;28;20062;-77
2022/05/29 11:56:08;;;;;;;1999.90;999.90;;;28.00;58.20;;;;;;4964990;28;20031;-78
2022/05/29 11:58:38;;;;;;;1999.90;999.90;;;28.30;60.30;;;;;;4971991;28;20442;-78
2022/05/29 12:01:13;;;;;;;1999.90;999.90;;;28.60;58.70;;;;;;4974728;28;20023;-78
2022/05/29 12:03:45;;;;;;;1999.90;999.90;;;28.00;58.90;;;;;;4975467;28;20035;-77
2022/05/29 12:06:13;;;;;;;1999.90;999.90;;;28.10;58.70;;;;;;4964017;28;20376;-77
2022/05/29 12:08:42;;;;;;;1999.90;999.90;;;27.90;58.30;;;;;;4975081;28;20030;-77
2022/05/29 12:11:33;;;;;;;1999.90;999.90;;;27.80;58.00;;;;;;4969311;28;20027;-77
2022/05/29 12:14:14;;;;;;;1999.90;999.90;;;27.60;58.40;;;;;;4975656;28;20019;-78
2022/05/29 12:16:43;;;;;;;1999.90;999.90;;;27.70;58.50;;;;;;4970955;28;20482;-78
2022/05/29 12:19:16;;;;;;;1999.90;999.90;;;27.40;57.90;;;;;;4950075;28;20034;-77
2022/05/29 12:22:11;;;;;;;1999.90;999.90;;;28.10;58.60;;;;;;4975103;28;20038;-77
2022/05/29 12:24:46;;;;;;;1999.90;999.90;;;28.30;57.70;;;;;;4973994;28;20119;-78
2022/05/29 12:27:21;;;;;;;1999.90;999.90;;;28.50;58.50;;;;;;4975333;28;20153;-78
2022/05/29 12:30:08;;;;;;;1999.90;999.90;;;28.30;58.20;;;;;;4975292;28;20031;-77
2022/05/29 12:32:37;;;;;;;1999.90;999.90;;;28.00;59.60;;;;;;4974777;28;20015;-78
2022/05/29 12:35:24;;;;;;;1999.90;999.90;;;28.30;58.40;;;;;;4975196;28;20018;-73
2022/05/29 12:38:27;;;;;;;1999.90;999.90;;;28.00;58.80;;;;;;4970361;28;20070;-78
2022/05/29 12:41:11;;;;;;;1999.90;999.90;;;27.20;58.80;;;;;;4971963;28;20059;-78
2022/05/29 12:43:59;;;;;;;1999.90;999.90;;;27.00;59.40;;;;;;4963984;28;20023;-77
2022/05/29 12:47:02;;;;;;;1999.90;999.90;;;26.70;59.00;;;;;;4955673;28;20055;-73
2022/05/29 12:49:47;;;;;;;1999.90;999.90;;;26.00;58.90;;;;;;4957476;28;20125;-77
2022/05/29 12:52:22;;;;;;;1999.90;999.90;;;25.30;59.60;;;;;;4971051;28;20110;-73
2022/05/29 12:55:21;;;;;;;1999.90;999.90;;;25.50;61.20;;;;;;4955594;28;20027;-77
2022/05/29 12:58:18;;;;;;;1999.90;999.90;;;24.80;61.20;;;;;;4958535;28;20031;-76
2022/05/29 13:01:18;;;;;;;1999.90;999.90;;;24.60;61.50;;;;;;4961854;28;20066;-72
2022/05/29 13:04:06;;;;;;;1999.90;999.90;;;24.70;61.40;;;;;;4974291;28;20034;-77
2022/05/29 13:06:47;;;;;;;1999.90;999.90;;;24.60;60.80;;;;;;4962154;28;20054;-76
2022/05/29 13:09:46;;;;;;;1999.90;999.90;;;25.30;62.40;;;;;;4958965;28;20027;-76